This is the latest recevied weather packets stored in our database for station/object IK1PCD-11. If no packets are shown the sender has not sent any weather packets the latest 10 day(s).
| Time | Temp. | Humidity | Pressure | Rain* | Wind** | Luminosity | Snow |
|---|---|---|---|---|---|---|---|
| 1788492946 | 11.67° C | 100% | 1022.9 hPa | - | - | - | - |
| 1788492045 | 12.22° C | 100% | 1022.8 hPa | - | - | - | - |
| 1788489346 | 12.22° C | 100% | 1022.7 hPa | - | - | - | - |
| 1788483946 | 11.67° C | 100% | 1022.9 hPa | - | - | - | - |
| 1788478545 | 12.78° C | 100% | 1023.3 hPa | - | - | - | - |
| 1788474944 | 13.33° C | 100% | 1023.3 hPa | - | - | - | - |
| 1788471344 | 13.89° C | 100% | 1023.6 hPa | - | - | - | - |
| 1788470443 | 14.44° C | 100% | 1023.5 hPa | - | - | - | - |
| 1788465945 | 15.56° C | 100% | 1023.5 hPa | - | - | - | - |
| 1788465045 | 16.11° C | 100% | 1023.7 hPa | - | - | - | - |
| 1788464145 | 16.67° C | 100% | 1023.6 hPa | - | - | - | - |
| 1788448843 | 23.89° C | 100% | 1022.3 hPa | - | - | - | - |
| 1788444347 | 25° C | 100% | 1022.2 hPa | - | - | - | - |
| 1788443447 | 25° C | 100% | 1022.2 hPa | - | - | - | - |
| 1788442546 | 25° C | 100% | 1022.3 hPa | - | - | - | - |
| 1788441646 | 26.11° C | 100% | 1022.2 hPa | - | - | - | - |
| 1788437146 | 25.56° C | 100% | 1022.2 hPa | - | - | - | - |
| 1788435346 | 24.44° C | 100% | 1022.7 hPa | - | - | - | - |
| 1788434446 | 24.44° C | 100% | 1022.6 hPa | - | - | - | - |
| 1788433546 | 23.89° C | 100% | 1022.9 hPa | - | - | - | - |
| 1788432646 | 22.78° C | 100% | 1023 hPa | - | - | - | - |
| 1788431745 | 20.56° C | 100% | 1023.6 hPa | - | - | - | - |
| 1788430845 | 21.11° C | 100% | 1023.6 hPa | - | - | - | - |
| 1788429945 | 21.67° C | 100% | 1023.3 hPa | - | - | - | - |
| 1788429044 | 21.67° C | 100% | 1023.7 hPa | - | - | - | - |
* Rain since midnight (hover to see other rain measurements)
** Current wind speed in m/s (hover to see current wind gust speed)